Time;durP1;ratioP1;P1;durP2;ratioP2;P2;SDS_P1;SDS_P2;PMS_P1;PMS_P2;Temp;Humidity;BMP_temperature;BMP_pressure;BME280_temperature;BME280_humidity;BME280_pressure;Samples;Min_cycle;Max_cycle;Signal;HPM_P1;HPM_P2
2022/01/27 00:07:35;;;;;;;3.45;1.95;;;;;;;-6.37;92.07;100112.94;5018896;28;20488;-84
2022/01/27 00:10:21;;;;;;;3.42;2.22;;;;;;;-6.36;91.67;100103.09;5031643;28;20083;-81
2022/01/27 00:12:47;;;;;;;3.90;2.10;;;;;;;-6.37;92.33;100096.91;5040757;28;20528;-84
2022/01/27 00:15:14;;;;;;;4.03;2.20;;;;;;;-6.34;92.23;100106.41;5039738;28;20068;-80
2022/01/27 00:17:45;;;;;;;5.50;2.40;;;;;;;-6.34;92.15;100093.88;5041837;28;20041;-83
2022/01/27 00:20:12;;;;;;;5.60;2.22;;;;;;;-6.34;92.55;100080.53;5040610;28;20052;-77
2022/01/27 00:22:38;;;;;;;2.95;2.67;;;;;;;-6.32;92.82;100072.34;5032978;28;20056;-84
2022/01/27 00:25:06;;;;;;;2.58;1.90;;;;;;;-6.37;92.63;100075.56;5029483;28;20053;-78
2022/01/27 00:27:32;;;;;;;5.00;2.28;;;;;;;-6.38;92.25;100088.09;5027858;28;20487;-80
2022/01/27 00:30:04;;;;;;;3.17;2.42;;;;;;;-6.39;92.39;100083.75;5026887;28;20072;-75
2022/01/27 00:32:31;;;;;;;3.17;2.30;;;;;;;-6.40;92.09;100067.94;5031116;28;20033;-80
2022/01/27 00:34:57;;;;;;;4.25;2.60;;;;;;;-6.40;92.62;100073.28;5035116;28;20521;-83
2022/01/27 00:37:22;;;;;;;4.70;2.60;;;;;;;-6.41;92.75;100069.78;5032786;28;20098;-83
2022/01/27 00:39:48;;;;;;;3.80;2.30;;;;;;;-6.40;92.59;100065.28;5038186;28;20483;-83
2022/01/27 00:42:14;;;;;;;4.97;2.17;;;;;;;-6.38;92.86;100061.41;5032250;28;20041;-82
2022/01/27 00:44:39;;;;;;;4.88;2.70;;;;;;;-6.37;92.69;100056.88;5043715;28;20041;-82
2022/01/27 00:47:05;;;;;;;4.45;2.80;;;;;;;-6.37;92.23;100048.88;5046444;28;20064;-83
2022/01/27 00:49:31;;;;;;;6.53;2.40;;;;;;;-6.36;91.95;100047.84;5044466;28;20033;-83
2022/01/27 00:51:58;;;;;;;4.70;2.20;;;;;;;-6.33;92.79;100052.00;5027479;28;20041;-82
2022/01/27 00:54:27;;;;;;;3.35;2.15;;;;;;;-6.34;92.02;100034.31;5023633;28;20034;-82
2022/01/27 00:59:28;;;;;;;2.42;1.73;;;;;;;-6.29;91.87;100026.56;5022229;28;20606;-83
2022/01/27 01:02:12;;;;;;;3.00;2.35;;;;;;;-6.25;91.99;100033.19;5023719;28;20462;-82
2022/01/27 01:04:42;;;;;;;4.85;2.50;;;;;;;-6.27;92.27;100032.56;5027343;28;20037;-82
2022/01/27 01:07:09;;;;;;;;;;;;;;;-6.28;91.93;100023.72;5024430;28;20500;-82
2022/01/27 01:15:07;;;;;;;3.47;2.40;;;;;;;-6.27;92.19;100025.38;5028281;28;20546;-82
2022/01/27 01:18:22;;;;;;;3.85;2.20;;;;;;;-6.25;92.13;100014.50;5023982;28;20042;-82
2022/01/27 01:20:30;;;;;;;4.30;2.50;;;;;;;-6.25;91.81;100006.50;5022897;28;20041;-82
2022/01/27 01:33:42;;;;;;;3.17;2.17;;;;;;;-6.26;92.22;99992.31;5028025;28;20493;-82
2022/01/27 01:36:16;;;;;;;4.32;2.30;;;;;;;-6.21;91.87;99986.44;5029316;28;20089;-83
2022/01/27 01:38:44;;;;;;;3.08;1.90;;;;;;;-6.24;92.10;99986.81;5023459;28;20048;-83
2022/01/27 01:41:10;;;;;;;4.90;2.40;;;;;;;-6.24;91.93;99990.31;5021561;28;20073;-82
2022/01/27 01:43:35;;;;;;;2.50;1.60;;;;;;;-6.24;92.32;99984.16;5022385;28;20492;-83
2022/01/27 01:46:01;;;;;;;3.33;1.90;;;;;;;-6.25;91.39;99988.63;5023267;28;20041;-83
2022/01/27 01:48:27;;;;;;;3.55;2.40;;;;;;;-6.25;91.83;99983.28;5019296;28;20124;-82
2022/01/27 01:50:52;;;;;;;4.70;2.20;;;;;;;-6.24;92.35;99984.16;5022915;28;20049;-82
2022/01/27 01:53:18;;;;;;;3.17;1.55;;;;;;;-6.24;91.82;99973.47;5025497;28;20707;-83
2022/01/27 01:55:43;;;;;;;2.92;1.88;;;;;;;-6.25;92.07;99967.25;5019628;28;20122;-82
2022/01/27 01:58:10;;;;;;;2.75;1.95;;;;;;;-6.23;91.90;99977.78;5006748;28;20712;-80
2022/01/27 02:00:36;;;;;;;2.92;1.90;;;;;;;-6.21;91.42;99973.09;5024396;28;20091;-80
2022/01/27 02:03:02;;;;;;;3.10;2.08;;;;;;;-6.19;91.48;99969.19;5024508;28;20099;-81
2022/01/27 02:05:33;;;;;;;3.10;2.05;;;;;;;-6.15;91.92;99962.47;5026034;28;20037;-81
2022/01/27 02:19:26;;;;;;;2.85;1.67;;;;;;;-6.15;91.14;99946.44;5022768;28;20037;-82
2022/01/27 02:22:03;;;;;;;3.20;1.40;;;;;;;-6.13;90.74;99944.41;5022558;28;20034;-81
2022/01/27 02:24:33;;;;;;;3.60;1.70;;;;;;;-6.12;90.81;99939.88;5021642;28;20124;-82
2022/01/27 02:27:00;;;;;;;3.78;1.90;;;;;;;-6.12;91.20;99938.03;5024053;28;20187;-82
2022/01/27 02:29:26;;;;;;;2.30;1.50;;;;;;;-6.10;90.50;99937.84;5024814;28;20045;-82
2022/01/27 02:31:53;;;;;;;2.90;1.80;;;;;;;-6.09;90.54;99944.84;5025225;28;20528;-82
2022/01/27 02:34:19;;;;;;;3.40;1.67;;;;;;;-6.11;91.28;99937.03;5022105;28;20033;-82
2022/01/27 02:36:45;;;;;;;3.40;1.88;;;;;;;-6.12;91.03;99934.53;5024024;28;20088;-82
2022/01/27 02:39:11;;;;;;;3.03;1.60;;;;;;;-6.14;90.59;99926.72;5023113;28;20060;-82
2022/01/27 02:41:45;;;;;;;3.88;1.70;;;;;;;-6.13;90.04;99922.22;5024686;28;20155;-82
2022/01/27 02:44:21;;;;;;;3.33;1.67;;;;;;;-6.14;90.29;99916.03;5019440;28;20037;-82
2022/01/27 02:46:50;;;;;;;3.40;2.15;;;;;;;-6.16;90.62;99907.41;5019195;28;20041;-82
2022/01/27 02:49:15;;;;;;;2.17;1.50;;;;;;;-6.16;90.92;99917.25;5028602;28;20412;-82
2022/01/27 02:51:41;;;;;;;2.30;1.58;;;;;;;-6.18;90.18;99903.28;5026425;28;20041;-82
2022/01/27 02:54:06;;;;;;;2.30;1.70;;;;;;;-6.18;90.39;99904.09;5039417;28;20033;-82
2022/01/27 02:56:33;;;;;;;3.22;1.50;;;;;;;-6.17;91.11;99899.59;5026343;28;20034;-83
2022/01/27 02:58:58;;;;;;;3.72;1.92;;;;;;;-6.15;90.25;99897.56;5028767;28;20042;-82
2022/01/27 03:01:24;;;;;;;5.18;2.10;;;;;;;-6.22;90.76;99896.69;5026462;28;20045;-82
2022/01/27 03:03:50;;;;;;;3.78;2.17;;;;;;;-6.23;90.75;99895.03;5026410;28;20071;-82
2022/01/27 03:06:15;;;;;;;2.75;1.92;;;;;;;-6.25;90.34;99900.53;5029683;28;20068;-82
2022/01/27 03:08:41;;;;;;;2.10;1.60;;;;;;;-6.25;91.08;99891.69;5023235;28;20161;-83
2022/01/27 03:11:12;;;;;;;3.58;1.70;;;;;;;-6.25;91.13;99892.50;5025351;28;20049;-83
2022/01/27 03:13:37;;;;;;;3.45;2.10;;;;;;;-6.24;90.44;99885.38;5024735;28;20568;-83
2022/01/27 03:16:06;;;;;;;4.30;2.10;;;;;;;-6.24;91.01;99883.53;5025841;28;20049;-83
2022/01/27 03:18:32;;;;;;;3.28;1.60;;;;;;;-6.25;90.94;99883.69;5028927;28;20034;-84
2022/01/27 03:20:58;;;;;;;2.67;1.52;;;;;;;-6.23;91.00;99889.69;5026198;28;20056;-82
2022/01/27 03:23:23;;;;;;;2.97;1.50;;;;;;;-6.22;91.05;99883.31;5016280;28;20037;-84
2022/01/27 03:25:49;;;;;;;3.88;1.48;;;;;;;-6.19;90.89;99870.41;5026038;28;20041;-84
2022/01/27 03:28:15;;;;;;;3.67;2.00;;;;;;;-6.16;91.22;99869.19;5022357;28;20048;-84
2022/01/27 03:30:41;;;;;;;2.38;1.80;;;;;;;-6.19;91.57;99864.25;5026342;28;20913;-84
2022/01/27 03:33:07;;;;;;;2.50;1.90;;;;;;;-6.20;91.07;99873.28;5027212;28;20065;-83
2022/01/27 03:35:32;;;;;;;3.92;2.33;;;;;;;-6.21;91.43;99853.75;5023627;28;20140;-84
2022/01/27 03:37:58;;;;;;;3.72;2.03;;;;;;;-6.22;90.74;99849.44;5031579;28;20044;-83
2022/01/27 03:40:24;;;;;;;2.38;1.75;;;;;;;-6.23;91.23;99852.31;5038870;28;20061;-84
2022/01/27 03:43:02;;;;;;;4.45;2.08;;;;;;;-6.24;91.13;99840.81;5028981;28;20048;-84
2022/01/27 03:45:28;;;;;;;3.88;1.98;;;;;;;-6.25;91.95;99846.31;5032824;28;20053;-83
2022/01/27 03:47:54;;;;;;;2.22;1.25;;;;;;;-6.27;91.28;99835.81;5035210;28;20516;-81
2022/01/27 03:50:19;;;;;;;3.08;1.60;;;;;;;-6.26;91.55;99829.47;5038254;28;20076;-82
2022/01/27 03:52:45;;;;;;;2.42;1.20;;;;;;;-6.24;91.42;99824.78;5036016;28;20036;-82
2022/01/27 03:55:11;;;;;;;3.55;1.70;;;;;;;-6.22;90.98;99821.91;5031729;28;20132;-82
2022/01/27 03:57:36;;;;;;;2.47;1.70;;;;;;;-6.24;91.25;99824.78;5010292;28;20100;-82
2022/01/27 04:00:04;;;;;;;3.97;2.00;;;;;;;-6.26;91.08;99820.63;5023923;28;20519;-82
2022/01/27 04:02:49;;;;;;;2.72;2.10;;;;;;;-6.26;91.79;99815.28;5072443;28;20034;-80
2022/01/27 04:05:15;;;;;;;3.95;2.28;;;;;;;-6.29;91.54;99813.84;5044932;28;20056;-79
2022/01/27 04:07:42;;;;;;;4.32;1.75;;;;;;;-6.29;91.30;99815.69;5043142;28;20069;-79
2022/01/27 04:10:08;;;;;;;4.43;1.90;;;;;;;-6.35;91.26;99811.94;5044927;28;20041;-79
2022/01/27 04:12:34;;;;;;;3.83;1.63;;;;;;;-6.36;91.25;99812.97;5034708;28;20041;-80
2022/01/27 04:14:59;;;;;;;2.65;1.90;;;;;;;-6.36;91.31;99812.97;5039555;28;20038;-77
2022/01/27 04:17:25;;;;;;;4.03;2.28;;;;;;;-6.36;92.00;99807.63;5031699;28;20140;-77
2022/01/27 04:19:50;;;;;;;3.85;1.98;;;;;;;-6.38;92.24;99799.81;5037089;28;20037;-77
2022/01/27 04:22:16;;;;;;;4.28;2.13;;;;;;;-6.39;91.59;99792.81;5043974;28;20049;-79
2022/01/27 04:24:42;;;;;;;5.88;1.67;;;;;;;-6.39;92.22;99790.16;5049030;28;20049;-77
2022/01/27 04:27:16;;;;;;;5.03;2.00;;;;;;;-6.42;91.88;99793.22;5027500;28;20038;-78
2022/01/27 04:29:42;;;;;;;3.13;1.65;;;;;;;-6.42;91.65;99787.88;5031915;28;20038;-78
2022/01/27 04:32:10;;;;;;;2.90;1.83;;;;;;;-6.42;91.65;99784.34;5030003;28;20041;-79
2022/01/27 04:34:38;;;;;;;2.42;1.60;;;;;;;-6.41;91.85;99775.34;5032504;28;20040;-79
2022/01/27 04:37:05;;;;;;;2.92;2.08;;;;;;;-6.40;91.68;99780.50;5035934;28;20487;-78
2022/01/27 04:39:39;;;;;;;2.63;1.77;;;;;;;-6.39;92.17;99767.97;5044232;28;20033;-81
2022/01/27 04:42:12;;;;;;;2.67;1.67;;;;;;;-6.38;91.68;99772.28;5037003;28;20045;-83
2022/01/27 04:44:54;;;;;;;3.42;1.80;;;;;;;-6.34;91.62;99770.88;5034715;28;20045;-80
2022/01/27 04:47:28;;;;;;;2.88;1.85;;;;;;;-6.32;92.19;99765.34;5038925;28;20044;-80
2022/01/27 04:49:53;;;;;;;2.35;1.70;;;;;;;-6.30;92.01;99774.00;5050655;28;20041;-80
2022/01/27 04:52:19;;;;;;;4.30;2.13;;;;;;;-6.28;92.30;99771.94;5037022;28;20047;-80
2022/01/27 04:55:05;;;;;;;2.25;1.75;;;;;;;-6.26;91.96;99773.41;5038928;28;20144;-79
2022/01/27 04:57:31;;;;;;;2.92;1.67;;;;;;;-6.24;91.62;99765.22;5042355;28;20051;-81
2022/01/27 04:59:57;;;;;;;2.70;1.60;;;;;;;-6.22;91.89;99771.19;5043538;28;20037;-79
2022/01/27 05:02:37;;;;;;;2.97;1.60;;;;;;;-6.18;92.09;99759.94;5036735;28;20131;-79
2022/01/27 05:05:03;;;;;;;4.95;2.00;;;;;;;-6.16;91.33;99757.88;5019958;28;20045;-79
2022/01/27 05:07:28;;;;;;;3.95;1.83;;;;;;;-6.15;92.06;99754.19;5041358;28;20053;-79
2022/01/27 05:09:59;;;;;;;2.90;1.90;;;;;;;-6.13;91.77;99749.47;5042533;28;20511;-79
2022/01/27 05:12:39;;;;;;;3.22;1.42;;;;;;;-6.13;91.72;99740.63;5034004;28;20045;-80
2022/01/27 05:15:05;;;;;;;5.15;2.53;;;;;;;-6.13;91.68;99733.44;5011539;28;20050;-79
2022/01/27 05:17:31;;;;;;;2.33;1.65;;;;;;;-6.12;91.17;99739.63;5028581;28;20099;-80
2022/01/27 05:19:56;;;;;;;2.45;1.90;;;;;;;-6.14;91.66;99737.16;5042551;28;20103;-80
2022/01/27 05:22:22;;;;;;;2.45;1.90;;;;;;;-6.15;91.86;99734.69;5051444;28;20064;-80
2022/01/27 05:24:48;;;;;;;2.75;1.90;;;;;;;-6.15;91.33;99726.66;5048831;28;20040;-80
2022/01/27 05:27:13;;;;;;;3.03;1.35;;;;;;;-6.14;91.25;99723.78;5036421;28;20044;-80
2022/01/27 05:29:39;;;;;;;5.18;1.90;;;;;;;-6.14;92.22;99723.78;5040495;28;20061;-81
2022/01/27 05:32:05;;;;;;;2.25;1.23;;;;;;;-6.13;91.92;99713.94;5043057;28;20044;-80
2022/01/27 05:34:30;;;;;;;2.30;1.88;;;;;;;-6.13;91.65;99727.28;5049885;28;20048;-79
2022/01/27 05:36:56;;;;;;;5.63;2.05;;;;;;;-6.14;91.60;99713.13;5050986;28;20071;-79
2022/01/27 05:39:21;;;;;;;4.03;1.88;;;;;;;-6.13;91.26;99714.75;5044231;28;20073;-81
2022/01/27 05:41:47;;;;;;;4.18;1.73;;;;;;;-6.11;91.84;99714.56;5029617;28;20404;-81
2022/01/27 05:44:12;;;;;;;3.95;2.25;;;;;;;-6.09;91.10;99715.19;5044993;28;20101;-81
2022/01/27 05:46:38;;;;;;;2.17;1.67;;;;;;;-6.09;91.39;99704.50;5034145;28;20049;-81
2022/01/27 05:49:04;;;;;;;2.53;1.40;;;;;;;-6.10;92.28;99708.19;5041704;28;20495;-80
2022/01/27 05:51:29;;;;;;;3.33;1.92;;;;;;;-6.06;91.44;99719.34;5041594;28;20041;-80
2022/01/27 05:53:55;;;;;;;3.50;1.98;;;;;;;-6.05;91.24;99713.81;5042451;28;20041;-79
2022/01/27 05:56:20;;;;;;;3.25;1.83;;;;;;;-6.03;91.30;99708.25;5034804;28;20065;-80
2022/01/27 05:58:46;;;;;;;2.90;1.92;;;;;;;-6.02;91.31;99702.72;5046272;28;20149;-80
2022/01/27 06:01:12;;;;;;;3.83;2.10;;;;;;;-5.99;91.81;99699.66;5036700;28;20032;-79
2022/01/27 06:03:38;;;;;;;4.03;2.38;;;;;;;-5.97;92.00;99697.59;5050404;28;20036;-80
2022/01/27 06:06:03;;;;;;;1.88;1.27;;;;;;;-6.00;91.33;99698.00;5038007;28;20087;-80
2022/01/27 06:08:30;;;;;;;3.65;2.15;;;;;;;-6.00;91.84;99698.00;5045858;28;20149;-80
2022/01/27 06:10:56;;;;;;;3.97;1.65;;;;;;;-6.00;91.34;99702.53;5017834;28;20086;-80
2022/01/27 06:13:22;;;;;;;3.38;2.20;;;;;;;-5.98;91.14;99687.13;5043674;28;20037;-80
2022/01/27 06:15:48;;;;;;;4.53;2.08;;;;;;;-5.96;92.06;99685.91;5039912;28;20045;-80
2022/01/27 06:18:14;;;;;;;4.57;1.90;;;;;;;-5.95;91.30;99686.72;5036377;28;20519;-80
2022/01/27 06:20:42;;;;;;;2.47;1.77;;;;;;;-5.96;91.94;99672.53;5045610;28;20064;-80
2022/01/27 06:23:08;;;;;;;2.67;1.48;;;;;;;-5.97;91.44;99678.91;5014301;28;20037;-80
2022/01/27 06:25:34;;;;;;;3.25;2.08;;;;;;;-5.98;91.83;99673.75;5048967;28;20136;-81
2022/01/27 06:28:00;;;;;;;2.15;1.48;;;;;;;-5.98;91.49;99669.25;5043993;28;20497;-80
2022/01/27 06:30:26;;;;;;;3.13;1.95;;;;;;;-5.98;91.68;99674.59;5050141;28;20048;-80
2022/01/27 06:32:52;;;;;;;2.85;1.80;;;;;;;-5.96;91.35;99675.22;5032733;28;20043;-80
2022/01/27 06:35:17;;;;;;;2.95;1.38;;;;;;;-5.95;91.55;99668.03;5042748;28;20041;-80
2022/01/27 06:37:45;;;;;;;4.82;2.28;;;;;;;-5.97;92.51;99668.22;5028676;28;20038;-80
2022/01/27 06:40:12;;;;;;;4.50;1.80;;;;;;;-5.99;91.70;99662.25;5044226;28;20102;-80
2022/01/27 06:42:38;;;;;;;1.88;1.50;;;;;;;-5.98;91.92;99653.22;5033243;28;20037;-80
2022/01/27 06:45:05;;;;;;;6.32;2.22;;;;;;;-5.95;92.33;99662.69;5045517;28;20068;-80
2022/01/27 06:47:30;;;;;;;4.45;2.00;;;;;;;-5.97;92.29;99656.72;5038692;28;20637;-80
2022/01/27 06:49:56;;;;;;;4.50;2.10;;;;;;;-5.95;92.64;99657.34;5036708;28;20138;-80
2022/01/27 06:52:24;;;;;;;2.97;2.08;;;;;;;-5.93;92.34;99656.13;5044432;28;20496;-80
2022/01/27 06:54:51;;;;;;;2.90;1.75;;;;;;;-5.91;91.92;99661.25;5028268;28;20704;-80
2022/01/27 06:57:17;;;;;;;2.70;1.77;;;;;;;-5.88;91.83;99653.66;5031604;28;20064;-81
2022/01/27 06:59:42;;;;;;;5.38;2.10;;;;;;;-5.88;92.23;99651.00;5038523;28;20503;-80
2022/01/27 07:02:08;;;;;;;4.18;1.33;;;;;;;-5.87;92.37;99647.28;5035379;28;20120;-81
2022/01/27 07:04:34;;;;;;;2.67;1.80;;;;;;;-5.86;92.68;99629.41;5046837;28;20045;-80
2022/01/27 07:06:59;;;;;;;13.23;2.15;;;;;;;-5.84;92.28;99641.53;5034623;28;20043;-80
2022/01/27 07:09:25;;;;;;;3.05;1.63;;;;;;;-5.84;92.18;99636.19;5046599;28;20457;-80
2022/01/27 07:11:50;;;;;;;4.05;1.90;;;;;;;-5.84;92.99;99633.53;5048703;28;20040;-80
2022/01/27 07:14:17;;;;;;;2.63;1.90;;;;;;;-5.82;93.10;99631.47;5035757;28;20072;-80
2022/01/27 07:16:43;;;;;;;3.35;1.70;;;;;;;-5.81;92.47;99630.47;5046612;28;20068;-80
2022/01/27 07:19:09;;;;;;;3.20;1.67;;;;;;;-5.80;92.78;99628.59;5034026;28;20033;-80
2022/01/27 07:21:35;;;;;;;3.50;1.48;;;;;;;-5.76;92.85;99624.50;5040915;28;20096;-80
2022/01/27 07:24:01;;;;;;;3.70;1.92;;;;;;;-5.76;92.96;99619.97;5037957;28;20041;-80
2022/01/27 07:26:26;;;;;;;4.28;1.80;;;;;;;-5.74;92.63;99619.78;5044844;28;20140;-80
2022/01/27 07:28:53;;;;;;;4.00;2.40;;;;;;;-5.68;92.55;99618.19;5035775;28;20410;-80
2022/01/27 07:31:19;;;;;;;3.65;2.20;;;;;;;-5.66;92.70;99618.78;5041307;28;20037;-81
2022/01/27 07:33:45;;;;;;;4.38;2.05;;;;;;;-5.64;92.25;99614.06;5040068;28;20037;-80
2022/01/27 07:36:10;;;;;;;4.38;2.08;;;;;;;-5.61;92.32;99617.16;5039050;28;20067;-80
2022/01/27 07:38:36;;;;;;;2.25;1.42;;;;;;;-5.58;93.47;99607.91;5049838;28;20048;-80
2022/01/27 07:41:01;;;;;;;6.22;2.05;;;;;;;-5.55;92.63;99599.50;5036792;28;20457;-80
2022/01/27 07:43:27;;;;;;;5.68;1.88;;;;;;;-5.52;92.31;99607.94;5044058;28;20132;-79
2022/01/27 07:45:53;;;;;;;8.07;2.40;;;;;;;-5.52;93.01;99601.78;5032089;28;20075;-80
2022/01/27 07:48:18;;;;;;;3.35;2.00;;;;;;;-5.51;93.03;99601.56;5053313;28;20045;-80
2022/01/27 07:50:44;;;;;;;4.90;2.03;;;;;;;-5.49;93.09;99604.84;5036549;28;20073;-80
2022/01/27 07:53:10;;;;;;;2.40;1.60;;;;;;;-5.46;92.42;99592.94;5046327;28;20124;-80
2022/01/27 07:55:36;;;;;;;2.20;1.83;;;;;;;-5.43;93.44;99587.19;5042094;28;20593;-80
2022/01/27 07:58:01;;;;;;;3.85;2.13;;;;;;;-5.41;92.26;99592.31;5023000;28;20048;-80
2022/01/27 08:00:27;;;;;;;5.78;2.15;;;;;;;-5.42;93.25;99583.47;5049192;28;20043;-80
2022/01/27 08:02:52;;;;;;;4.47;2.40;;;;;;;-5.38;93.03;99587.41;5036222;28;20029;-80
2022/01/27 08:05:20;;;;;;;5.70;2.58;;;;;;;-5.37;93.12;99591.72;5039291;28;20044;-80
2022/01/27 08:07:46;;;;;;;4.75;2.42;;;;;;;-5.35;93.22;99583.50;5044153;28;20060;-80
2022/01/27 08:10:12;;;;;;;4.00;1.77;;;;;;;-5.36;92.88;99587.19;5037145;28;20412;-79
2022/01/27 08:12:44;;;;;;;4.78;2.35;;;;;;;-5.35;93.03;99587.00;5033867;28;20040;-80
2022/01/27 08:15:11;;;;;;;6.20;2.05;;;;;;;-5.36;92.79;99584.53;5047167;28;20037;-79
2022/01/27 08:17:38;;;;;;;2.50;1.63;;;;;;;-5.41;93.34;99578.94;5038055;28;20132;-79
2022/01/27 08:20:05;;;;;;;4.45;1.88;;;;;;;-5.40;93.25;99580.59;5040485;28;20048;-79
2022/01/27 08:22:32;;;;;;;6.50;2.55;;;;;;;-5.39;93.66;99583.06;5037851;28;20389;-79
2022/01/27 08:24:57;;;;;;;5.30;2.17;;;;;;;-5.33;92.97;99581.44;5048977;28;20033;-80
2022/01/27 08:27:27;;;;;;;3.13;2.15;;;;;;;-5.30;93.59;99579.19;5039863;28;20048;-80
2022/01/27 08:29:59;;;;;;;10.20;3.40;;;;;;;-5.27;93.16;99573.41;5050183;28;20041;-80
2022/01/27 08:32:34;;;;;;;5.63;2.58;;;;;;;-5.31;93.24;99566.84;5036433;28;20122;-80
2022/01/27 08:35:00;;;;;;;3.15;1.88;;;;;;;-5.32;93.58;99556.34;5020409;28;20040;-80
2022/01/27 08:37:30;;;;;;;5.20;2.17;;;;;;;-5.33;93.35;99558.19;5043444;28;20132;-80
2022/01/27 08:39:56;;;;;;;4.95;2.50;;;;;;;-5.28;93.29;99552.22;5044269;28;20053;-81
2022/01/27 08:42:22;;;;;;;3.38;1.75;;;;;;;-5.13;94.10;99558.19;5035282;28;20056;-80
2022/01/27 08:44:48;;;;;;;3.13;1.77;;;;;;;-5.08;94.19;99555.72;5034215;28;20120;-78
2022/01/27 08:47:15;;;;;;;4.18;2.58;;;;;;;-5.01;94.28;99553.06;5045920;28;20484;-79
2022/01/27 08:49:47;;;;;;;3.60;2.00;;;;;;;-5.03;93.62;99544.41;5041499;28;20618;-80
2022/01/27 08:52:18;;;;;;;3.92;2.50;;;;;;;-5.12;94.52;99546.47;5036943;28;20140;-80
2022/01/27 08:54:43;;;;;;;5.28;2.38;;;;;;;-5.18;93.71;99537.44;5045994;28;20041;-79
2022/01/27 08:57:11;;;;;;;5.82;2.28;;;;;;;-5.17;94.49;99532.91;5033017;28;20094;-81
2022/01/27 08:59:37;;;;;;;5.40;3.00;;;;;;;-5.16;93.76;99534.56;5041146;28;20037;-82
2022/01/27 09:02:02;;;;;;;3.97;2.45;;;;;;;-5.11;93.72;99532.06;5038115;28;20140;-80
2022/01/27 09:04:28;;;;;;;2.55;1.83;;;;;;;-5.05;93.23;99531.22;5046970;28;20512;-83
2022/01/27 09:06:53;;;;;;;3.40;2.13;;;;;;;-5.04;94.04;99532.06;5039461;28;20036;-81
2022/01/27 09:09:19;;;;;;;3.80;2.30;;;;;;;-4.98;93.25;99536.59;5041157;28;20048;-73
2022/01/27 09:11:51;;;;;;;5.00;2.33;;;;;;;-4.89;93.27;99527.31;5044910;28;20040;-74
2022/01/27 09:14:17;;;;;;;5.57;2.40;;;;;;;-4.80;93.74;99526.06;5045190;28;20055;-73
2022/01/27 09:16:43;;;;;;;3.88;2.33;;;;;;;-4.73;93.72;99523.38;5033715;28;20045;-72
2022/01/27 09:19:09;;;;;;;5.05;2.75;;;;;;;-4.65;93.21;99532.00;5046000;28;20535;-74
2022/01/27 09:21:45;;;;;;;7.78;3.25;;;;;;;-4.61;93.39;99519.84;5040122;28;20039;-73
2022/01/27 09:24:15;;;;;;;3.67;2.40;;;;;;;-4.62;93.79;99518.22;5037778;28;20038;-73
2022/01/27 09:29:15;;;;;;;4.65;2.42;;;;;;;-4.56;93.24;99516.53;5051266;28;20459;-71
2022/01/27 09:31:41;;;;;;;5.97;3.17;;;;;;;-4.55;93.27;99508.28;5041604;28;20049;-72
2022/01/27 09:34:06;;;;;;;4.28;2.50;;;;;;;-4.51;93.63;99510.53;5044380;28;20106;-71
2022/01/27 09:36:32;;;;;;;3.90;2.63;;;;;;;-4.45;92.92;99507.84;5048360;28;20051;-71
2022/01/27 09:38:58;;;;;;;8.35;3.03;;;;;;;-4.40;92.53;99502.69;5020049;28;20513;-72
2022/01/27 09:41:25;;;;;;;3.53;2.25;;;;;;;-4.38;92.85;99505.97;5042623;28;20032;-71
2022/01/27 09:43:53;;;;;;;6.10;2.55;;;;;;;-4.34;92.77;99501.00;5040700;28;20071;-72
2022/01/27 09:46:25;;;;;;;5.80;2.58;;;;;;;-4.29;92.65;99507.38;5046034;28;20131;-85
2022/01/27 09:48:52;;;;;;;7.80;3.10;;;;;;;-4.23;92.34;99499.53;5030873;28;20458;-87
2022/01/27 09:51:26;;;;;;;6.13;2.33;;;;;;;-4.19;92.96;99488.16;5040551;28;20037;-88
2022/01/27 09:53:57;;;;;;;5.03;2.20;;;;;;;-4.19;91.94;99484.66;5042879;28;20033;-86
2022/01/27 09:56:23;;;;;;;6.47;2.70;;;;;;;-4.17;92.34;99493.31;5033983;28;20045;-87
2022/01/27 09:58:49;;;;;;;6.63;3.08;;;;;;;-4.11;92.06;99490.59;5037498;28;20083;-86
2022/01/27 10:01:15;;;;;;;3.83;2.47;;;;;;;-4.11;92.17;99484.44;5036783;28;20433;-85
2022/01/27 10:03:55;;;;;;;4.72;2.70;;;;;;;-4.14;92.10;99474.97;5040152;28;20048;-85
2022/01/27 10:06:26;;;;;;;3.70;1.90;;;;;;;-4.10;92.19;99468.13;5039245;28;20076;-83
2022/01/27 10:09:10;;;;;;;4.93;2.83;;;;;;;-4.14;92.43;99474.97;5042348;28;20037;-83
2022/01/27 10:11:43;;;;;;;5.57;2.60;;;;;;;-4.18;91.87;99479.09;5023871;28;20046;-81
2022/01/27 10:14:16;;;;;;;2.85;2.05;;;;;;;-4.16;92.03;99471.69;5048014;28;20076;-83
2022/01/27 10:16:43;;;;;;;7.63;3.10;;;;;;;-4.14;92.39;99468.78;5034145;28;20084;-83
2022/01/27 10:19:10;;;;;;;6.97;2.85;;;;;;;-4.14;92.08;99469.63;5045129;28;20041;-82
2022/01/27 10:21:36;;;;;;;4.65;2.72;;;;;;;-4.12;92.14;99456.81;5038433;28;20041;-83
2022/01/27 10:24:25;;;;;;;4.93;2.55;;;;;;;-4.16;92.00;99465.50;5040582;28;20037;-84
2022/01/27 10:28:10;;;;;;;5.53;3.30;;;;;;;-4.15;91.82;99459.13;5035860;28;20037;-83
2022/01/27 10:32:51;;;;;;;6.00;2.67;;;;;;;-4.17;91.15;99463.84;5046801;28;20055;-82
2022/01/27 10:35:25;;;;;;;3.75;2.47;;;;;;;-4.21;91.73;99468.00;5032267;28;20073;-83
2022/01/27 10:37:59;;;;;;;3.85;2.40;;;;;;;-4.25;90.94;99468.41;5034867;28;20588;-81
2022/01/27 10:40:29;;;;;;;2.67;1.55;;;;;;;-4.26;91.64;99461.41;5033103;28;20048;-80
2022/01/27 10:43:03;;;;;;;5.80;3.08;;;;;;;-4.25;91.21;99451.53;5041424;28;20032;-80
2022/01/27 10:45:29;;;;;;;4.30;2.80;;;;;;;-4.22;90.99;99442.25;5038332;28;20037;-81
2022/01/27 10:48:15;;;;;;;7.82;2.90;;;;;;;-4.23;91.42;99449.47;5037040;28;20048;-80
2022/01/27 10:50:53;;;;;;;3.03;1.95;;;;;;;-4.26;90.70;99439.19;5046766;28;20052;-80
2022/01/27 10:53:20;;;;;;;6.60;3.05;;;;;;;-4.27;90.82;99454.44;5020176;28;20419;-83
2022/01/27 10:56:04;;;;;;;5.00;3.33;;;;;;;-4.27;91.26;99448.25;5031117;28;20585;-83
2022/01/27 10:58:30;;;;;;;6.00;2.85;;;;;;;-4.27;90.66;99441.03;5036538;28;20057;-83
2022/01/27 11:00:57;;;;;;;7.22;3.10;;;;;;;-4.22;90.89;99434.22;5036484;28;20122;-84
2022/01/27 11:03:23;;;;;;;6.22;3.45;;;;;;;-4.20;91.03;99430.28;5044671;28;20038;-82
2022/01/27 11:05:50;;;;;;;6.18;2.70;;;;;;;-4.21;90.72;99436.66;5032288;28;20087;-83
2022/01/27 11:08:19;;;;;;;5.90;3.38;;;;;;;-4.18;91.11;99433.56;5035811;28;20049;-81
2022/01/27 11:11:10;;;;;;;8.90;3.10;;;;;;;-4.14;90.65;99426.75;5040621;28;20044;-83
2022/01/27 11:13:43;;;;;;;6.05;3.25;;;;;;;-4.09;90.74;99426.09;5039140;28;20371;-81
2022/01/27 11:16:12;;;;;;;5.55;3.25;;;;;;;-4.06;90.46;99425.66;5035269;28;20100;-83
2022/01/27 11:18:39;;;;;;;4.30;2.70;;;;;;;-4.04;90.92;99420.91;5040154;28;20072;-81
2022/01/27 11:21:12;;;;;;;7.05;3.22;;;;;;;-4.02;90.55;99422.31;5041367;28;20048;-80
2022/01/27 11:26:07;;;;;;;6.78;2.67;;;;;;;-4.01;90.06;99423.97;5033703;28;20037;-84
2022/01/27 11:28:33;;;;;;;4.13;2.65;;;;;;;-3.98;90.57;99418.19;5012849;28;20091;-81
2022/01/27 11:31:10;;;;;;;4.82;2.92;;;;;;;-3.94;90.74;99413.22;5063191;28;20049;-81
2022/01/27 11:33:37;;;;;;;7.25;3.40;;;;;;;-3.91;90.73;99411.97;5017952;28;20053;-81
2022/01/27 11:36:07;;;;;;;7.43;3.22;;;;;;;-3.86;91.30;99412.13;5041972;28;20059;-81
2022/01/27 11:38:33;;;;;;;6.00;2.90;;;;;;;-3.82;90.90;99407.97;5050210;28;20032;-81
2022/01/27 11:40:58;;;;;;;7.32;3.50;;;;;;;-3.80;90.76;99400.56;5038192;28;20055;-80
2022/01/27 11:43:33;;;;;;;7.47;3.05;;;;;;;-3.79;90.88;99386.13;5047743;28;20495;-81
2022/01/27 11:46:19;;;;;;;5.75;3.30;;;;;;;-3.77;90.92;99392.06;5037985;28;20529;-80
2022/01/27 11:48:45;;;;;;;7.18;3.45;;;;;;;-3.75;90.53;99387.31;5038270;28;20041;-81
2022/01/27 11:51:13;;;;;;;7.13;3.08;;;;;;;-3.76;90.80;99383.81;5033722;28;20075;-79
2022/01/27 11:53:48;;;;;;;6.80;2.65;;;;;;;-3.77;90.89;99386.72;5031060;28;20041;-79
2022/01/27 11:56:23;;;;;;;3.88;1.98;;;;;;;-3.82;90.79;99381.97;5038021;28;20057;-82
2022/01/27 11:58:59;;;;;;;5.53;3.40;;;;;;;-3.85;91.16;99377.06;5040227;28;20040;-79
2022/01/27 12:01:35;;;;;;;5.65;2.30;;;;;;;-3.84;91.38;99377.88;5028993;28;20041;-78
2022/01/27 12:04:11;;;;;;;3.20;2.47;;;;;;;-3.86;90.54;99382.66;5038210;28;20033;-80
2022/01/27 12:07:03;;;;;;;5.72;3.08;;;;;;;-3.86;90.69;99375.44;5033522;28;20042;-79
2022/01/27 12:09:31;;;;;;;4.43;2.33;;;;;;;-3.86;90.52;99372.75;5038578;28;20033;-78
2022/01/27 12:12:01;;;;;;;6.70;3.30;;;;;;;-3.84;90.13;99370.66;5043146;28;20136;-79
2022/01/27 12:14:29;;;;;;;3.20;2.08;;;;;;;-3.85;90.83;99366.34;5037237;28;20049;-80
2022/01/27 12:17:10;;;;;;;4.47;3.03;;;;;;;-3.82;91.15;99373.94;5002284;28;20041;-78
2022/01/27 12:20:08;;;;;;;8.32;3.55;;;;;;;-3.82;91.30;99362.41;5033568;28;20386;-77
2022/01/27 12:22:43;;;;;;;5.60;3.28;;;;;;;-3.83;91.00;99368.81;5044061;28;20041;-76